Latest Weather Observations for Hay Airport

IDN60801

Issued at 1:02 pm EST Sunday 30 August 2015 (issued every 30 minutes, with the page automatically refreshed every 10 minutes)

About weather observations | Map of weather stations | Latest weather observations for NSW | Other Formats
Station Details ID: 075019 Name: HAY AIRPORT AWS Lat: -34.54 Lon: 144.83 Height: 92.0 m
Data from the previous 72 hours. | See also: Recent months at Hay Airport
Date/Time
EST
Temp
°C
App
Temp
°C
Dew
Point
Rel
Hum
%
Delta-T
°C
Wind Press
QNH
hPa
Press
MSL
hPa
Rain
since 9 am
mm
Dir
 
Spd
km/h
Gust
km/h
Spd
kts
Gust
kts
30/01:00pm 12.9 7.7 5.6 61 3.4 SW 22 32 12 17 1022.9 1022.9 0.0
30/12:30pm 12.8 8.0 5.7 62 3.3 SSW 20 28 11 15 1023.4 1023.5 0.0
30/12:00pm 13.6 9.3 6.9 64 3.2 SSW 19 28 10 15 1023.8 1023.9 0.0
30/11:30am 12.1 6.9 5.5 64 3.1 SSW 22 32 12 17 1024.2 1024.3 0.0
30/11:00am 12.1 6.9 5.7 65 3.0 SSW 22 32 12 17 1024.4 1024.5 0.0
30/10:30am 11.9 5.9 5.5 65 3.0 SSW 26 33 14 18 1024.7 1024.8 0.0
30/10:00am 11.3 5.4 6.0 70 2.5 SSW 26 32 14 17 1024.8 1024.9 0.0
30/09:30am 10.2 5.2 6.5 78 1.7 SSW 22 28 12 15 1025.0 1025.1 0.0
30/09:00am 8.7 4.1 6.5 86 1.0 SSW 20 26 11 14 1024.9 1025.0 0.0
30/08:30am 7.3 3.2 6.1 92 0.5 SW 17 22 9 12 1024.7 1024.8 0.0
30/08:00am 5.8 1.2 5.5 98 0.1 SW 19 24 10 13 1024.7 1024.8 0.0
30/07:30am 3.9 0.1 3.8 99 0.0 SW 13 17 7 9 1024.5 1024.6 0.0
30/07:00am 3.2 -0.8 3.1 99 0.0 SW 13 19 7 10 1024.3 1024.4 0.0
30/06:30am 3.3 -1.0 3.2 99 0.0 SSW 15 20 8 11 1024.1 1024.2 0.0
30/06:00am 3.6 -0.7 3.5 99 0.0 SW 15 19 8 10 1023.8 1023.9 0.0
30/05:30am 3.0 -1.0 2.9 99 0.0 SW 13 15 7 8 1023.7 1023.8 0.0
30/05:00am 2.2 -1.5 2.1 99 0.0 SW 11 13 6 7 1023.9 1024.0 0.0
30/04:30am 2.2 -1.9 2.1 99 0.0 WSW 13 15 7 8 1023.8 1023.9 0.0
30/04:00am 1.9 -2.3 1.8 99 0.0 WSW 13 15 7 8 1023.9 1024.0 0.0
30/03:30am 1.9 -2.3 1.6 98 0.1 WSW 13 15 7 8 1023.9 1024.0 0.0
30/03:00am 2.2 -2.0 1.6 96 0.2 WSW 13 15 7 8 1024.2 1024.3 0.0
30/02:30am 2.4 -1.7 2.0 97 0.2 WSW 13 17 7 9 1024.4 1024.5 0.0
30/02:00am 2.3 -1.5 1.6 95 0.3 WSW 11 13 6 7 1024.6 1024.7 0.0
30/01:30am 2.9 -1.2 2.3 96 0.2 WSW 13 13 7 7 1024.7 1024.8 0.0
30/01:00am 2.7 -1.4 2.0 95 0.3 WSW 13 15 7 8 1025.1 1025.2 0.0
30/12:30am 3.3 -0.8 2.3 93 0.4 SW 13 15 7 8 1025.2 1025.3 0.0
30/12:00am 3.4 -0.7 2.4 93 0.4 WSW 13 17 7 9 1025.2 1025.3 0.0
 
Date/Time
EST
Temp
°C
App
Temp
°C
Dew
Point
Rel
Hum
%
Delta-T
°C
Wind Press
QNH
hPa
Press
MSL
hPa
Rain
since 9 am
mm
Dir
 
Spd
km/h
Gust
km/h
Spd
kts
Gust
kts
29/11:30pm 3.7 -0.7 2.5 92 0.5 WSW 15 17 8 9 1025.4 1025.5 0.0
29/11:00pm 3.3 -0.4 2.3 93 0.4 WSW 11 13 6 7 1025.5 1025.6 0.0
29/10:30pm 3.6 -0.4 2.6 93 0.4 WSW 13 15 7 8 1025.6 1025.7 0.0
29/10:00pm 3.9 0.7 3.2 95 0.3 WSW 9 15 5 8 1025.6 1025.7 0.0
29/09:30pm 2.7 -0.4 1.4 91 0.5 SW 7 9 4 5 1025.6 1025.7 0.0
29/09:00pm 5.0 1.8 2.9 86 0.9 S 9 11 5 6 1025.5 1025.6 0.0
29/08:30pm 5.0 2.1 2.7 85 0.9 SSW 7 9 4 5 1025.4 1025.5 0.0
29/08:00pm 6.3 2.3 3.1 80 1.3 S 13 15 7 8 1025.3 1025.4 0.0
29/07:30pm 5.9 2.2 2.2 77 1.5 SSW 11 13 6 7 1025.2 1025.3 0.0
29/07:00pm 7.1 3.8 2.4 72 1.9 SSW 9 11 5 6 1025.1 1025.2 0.0
29/06:30pm 7.4 3.3 2.1 69 2.2 SSW 13 13 7 7 1024.9 1025.0 0.0
29/06:00pm 9.0 4.4 1.7 60 3.0 S 15 17 8 9 1024.6 1024.7 0.0
29/05:30pm 10.7 5.3 1.3 52 3.9 SSW 19 22 10 12 1024.5 1024.6 0.0
29/05:00pm 12.1 6.8 2.0 50 4.3 SSW 19 26 10 14 1024.5 1024.6 0.0
29/04:30pm 12.5 6.9 1.5 47 4.7 SSW 20 28 11 15 1024.5 1024.6 0.0
29/04:00pm 12.8 7.4 1.5 46 4.8 S 19 24 10 13 1024.5 1024.6 0.0
29/03:30pm 12.9 7.4 1.6 46 4.9 SSW 20 30 11 16 1024.7 1024.8 0.0
29/03:00pm 12.8 7.0 2.1 48 4.6 SSW 22 35 12 19 1024.8 1024.9 0.0
29/02:30pm 12.9 7.3 3.6 53 4.2 SSW 22 32 12 17 1024.9 1025.0 0.0
29/02:00pm 12.7 7.4 3.1 52 4.2 SSW 20 30 11 16 1024.9 1025.0 0.0
29/01:30pm 13.1 7.6 4.0 54 4.1 SSW 22 30 12 16 1025.1 1025.2 0.0
29/01:00pm 12.6 7.3 3.0 52 4.2 SW 20 30 11 16 1025.6 1025.7 0.0
29/12:30pm 12.4 8.1 3.1 53 4.1 SSW 15 22 8 12 1025.9 1026.0 0.0
29/12:00pm 12.1 7.1 3.6 56 3.8 SSW 19 26 10 14 1026.3 1026.4 0.0
29/11:30am 11.4 6.6 2.7 55 3.8 S 17 22 9 12 1026.6 1026.7 0.0
29/11:00am 10.3 5.1 2.7 59 3.3 S 19 24 10 13 1026.8 1026.9 0.0
29/10:30am 10.1 5.1 3.6 64 2.9 SSW 19 24 10 13 1027.2 1027.3 0.0
29/10:00am 9.0 3.8 3.4 68 2.4 SSW 20 26 11 14 1027.5 1027.6 0.0
29/09:30am 8.5 3.5 4.5 76 1.8 SSW 20 26 11 14 1027.5 1027.6 0.0
29/09:00am 7.4 2.4 4.5 82 1.3 S 20 26 11 14 1027.3 1027.4 0.2
29/08:30am 6.4 1.9 4.4 87 0.9 SSW 17 22 9 12 1027.1 1027.2 0.2
29/08:00am 5.3 1.7 4.9 97 0.2 SSW 13 15 7 8 1027.0 1027.1 0.2
29/07:30am 3.8 0.7 3.7 99 0.0 SW 9 11 5 6 1026.6 1026.7 0.2
29/07:00am 1.4 -2.1 1.3 99 0.0 WSW 9 13 5 7 1026.2 1026.3 0.2
29/06:30am 1.8 -1.3 1.4 97 0.2 SSW 7 9 4 5 1026.0 1026.1 0.2
29/06:00am 2.3 -1.5 1.7 96 0.2 S 11 13 6 7 1025.8 1025.9 0.2
29/05:30am 3.3 -0.7 2.7 96 0.2 S 13 15 7 8 1025.5 1025.6 0.2
29/05:00am 3.4 -0.1 3.3 99 0.0 S 11 15 6 8 1025.4 1025.5 0.2
29/04:30am 2.4 -1.7 2.3 99 0.0 SSW 13 15 7 8 1025.3 1025.4 0.2
29/04:00am 2.3 -1.0 2.2 99 0.0 SSW 9 11 5 6 1025.3 1025.4 0.2
29/03:30am 3.0 -0.2 2.9 99 0.0 SSW 9 11 5 6 1025.4 1025.5 0.2
29/03:00am 2.6 -1.1 2.5 99 0.0 SSW 11 13 6 7 1025.3 1025.4 0.2
29/02:30am 2.1 -0.9 1.7 97 0.2 WSW 7 9 4 5 1025.4 1025.5 0.2
29/02:00am 3.4 0.2 3.0 97 0.2 WSW 9 11 5 6 1025.4 1025.5 0.2
29/01:30am 3.7 -0.3 3.0 95 0.3 WSW 13 15 7 8 1025.3 1025.4 0.2
29/01:00am 3.9 0.0 3.2 95 0.3 WSW 13 17 7 9 1025.2 1025.3 0.2
29/12:30am 3.9 0.7 2.9 93 0.4 W 9 11 5 6 1025.1 1025.2 0.2
29/12:00am 4.6 0.7 3.3 91 0.5 WSW 13 15 7 8 1025.1 1025.2 0.2
 
Date/Time
EST
Temp
°C
App
Temp
°C
Dew
Point
Rel
Hum
%
Delta-T
°C
Wind Press
QNH
hPa
Press
MSL
hPa
Rain
since 9 am
mm
Dir
 
Spd
km/h
Gust
km/h
Spd
kts
Gust
kts
28/11:30pm 4.9 1.5 3.9 93 0.4 WSW 11 15 6 8 1025.3 1025.4 0.2
28/11:00pm 4.0 0.8 3.0 93 0.4 W 9 11 5 6 1025.5 1025.6 0.2
28/10:30pm 5.1 2.1 3.9 92 0.5 WSW 9 13 5 7 1025.6 1025.7 0.2
28/10:00pm 5.8 2.5 4.3 90 0.6 WSW 11 13 6 7 1025.6 1025.7 0.2
28/09:30pm 5.6 2.7 4.7 94 0.4 WSW 9 11 5 6 1025.6 1025.7 0.2
28/09:00pm 4.9 2.3 3.4 90 0.6 W 6 7 3 4 1025.6 1025.7 0.2
28/08:30pm 6.9 4.1 5.2 89 0.8 SW 9 11 5 6 1025.4 1025.5 0.2
28/08:00pm 7.3 4.1 5.1 86 1.0 SW 11 13 6 7 1025.3 1025.4 0.2
28/07:30pm 8.2 4.7 5.3 82 1.3 SW 13 19 7 10 1025.1 1025.2 0.2
28/07:00pm 8.4 5.2 5.3 81 1.4 SW 11 13 6 7 1025.0 1025.1 0.2
28/06:30pm 9.4 6.3 5.6 77 1.7 SW 11 15 6 8 1024.8 1024.9 0.2
28/06:00pm 10.9 7.5 5.7 70 2.4 SW 13 17 7 9 1024.7 1024.8 0.2
28/05:30pm 12.8 8.1 5.0 59 3.6 SW 19 22 10 12 1024.4 1024.5 0.2
28/05:00pm 13.8 9.1 5.9 59 3.7 SW 20 26 11 14 1024.1 1024.2 0.2
28/04:30pm 14.5 9.9 6.6 59 3.8 SW 20 28 11 15 1023.9 1024.0 0.2
28/04:00pm 14.7 9.3 6.3 57 4.0 SSW 24 32 13 17 1023.8 1023.9 0.2
28/03:30pm 14.1 8.8 6.7 61 3.6 SW 24 32 13 17 1023.9 1024.0 0.2
28/03:00pm 15.3 10.7 6.6 56 4.2 SW 20 32 11 17 1023.9 1024.0 0.2
28/02:30pm 15.1 10.5 6.4 56 4.2 SW 20 32 11 17 1023.9 1024.0 0.2
28/02:00pm 14.7 10.1 6.5 58 4.0 SW 20 28 11 15 1024.0 1024.1 0.2
28/01:30pm 14.9 10.6 7.2 60 3.8 SW 19 30 10 16 1024.3 1024.4 0.2
28/01:00pm 15.0 10.4 8.0 63 3.5 SSW 22 30 12 16 1024.7 1024.8 0.2
28/12:30pm 14.2 8.7 5.8 57 4.0 SSW 24 35 13 19 1025.2 1025.3 0.2
28/12:00pm 15.0 10.8 8.3 64 3.4 SSW 20 26 11 14 1025.5 1025.6 0.0
28/11:30am 13.9 9.3 6.7 62 3.5 SSW 20 30 11 16 1025.9 1026.0 0.0
28/11:00am 13.4 8.1 7.0 65 3.1 SSW 24 30 13 16 1026.1 1026.2 0.0
28/10:30am 12.9 7.8 6.0 63 3.3 S 22 30 12 16 1026.1 1026.2 0.0
28/10:00am 11.9 6.1 6.2 68 2.7 S 26 32 14 17 1026.2 1026.3 0.0
28/09:30am 11.4 6.6 7.3 76 2.0 S 22 30 12 16 1026.0 1026.1 0.0
28/09:00am 10.3 5.6 7.7 84 1.2 SSW 22 30 12 16 1025.8 1025.9 0.2
28/08:30am 9.2 5.2 8.1 93 0.5 SSW 19 24 10 13 1025.3 1025.4 0.2
28/08:00am 7.8 4.3 7.4 97 0.2 SSW 15 20 8 11 1024.9 1025.0 0.2
28/07:30am 6.2 3.2 6.1 99 0.0 SW 11 15 6 8 1024.7 1024.8 0.2
28/07:00am 5.4 1.9 5.3 99 0.0 SW 13 15 7 8 1024.3 1024.4 0.2
28/06:30am 5.5 1.6 5.4 99 0.0 SW 15 17 8 9 1024.2 1024.3 0.2
28/06:00am 5.4 1.9 5.3 99 0.0 SW 13 17 7 9 1023.9 1024.0 0.2
28/05:30am 4.9 1.3 4.8 99 0.0 SW 13 15 7 8 1023.6 1023.7 0.2
28/05:00am 5.4 1.5 5.3 99 0.0 SW 15 17 8 9 1023.4 1023.5 0.2
28/04:30am 4.9 1.3 4.8 99 0.0 WSW 13 15 7 8 1023.3 1023.4 0.2
28/04:00am 5.2 1.6 5.1 99 0.0 WSW 13 15 7 8 1023.0 1023.0 0.2
28/03:30am 5.2 1.6 5.1 99 0.0 WSW 13 17 7 9 1022.8 1022.8 0.2
28/03:00am 5.3 1.7 5.2 99 0.0 WSW 13 15 7 8 1022.8 1022.8 0.2
28/02:30am 5.1 1.8 4.8 98 0.1 W 11 15 6 8 1022.8 1022.8 0.2
28/02:00am 5.7 2.6 5.4 98 0.1 WSW 11 15 6 8 1023.0 1023.0 0.2
28/01:30am 6.2 2.4 5.8 97 0.2 WSW 15 17 8 9 1022.8 1022.8 0.2
28/01:00am 6.3 3.3 5.9 97 0.2 WSW 11 15 6 8 1023.0 1023.0 0.2
28/12:30am 7.0 3.7 6.4 96 0.3 WSW 13 15 7 8 1022.9 1022.9 0.2
28/12:00am 7.6 4.4 6.9 95 0.3 W 13 17 7 9 1022.9 1022.9 0.2
 
Date/Time
EST
Temp
°C
App
Temp
°C
Dew
Point
Rel
Hum
%
Delta-T
°C
Wind Press
QNH
hPa
Press
MSL
hPa
Rain
since 9 am
mm
Dir
 
Spd
km/h
Gust
km/h
Spd
kts
Gust
kts
27/11:30pm 8.0 4.5 7.1 94 0.4 W 15 19 8 10 1022.8 1022.8 0.2
27/11:00pm 8.0 4.8 6.9 93 0.5 W 13 15 7 8 1022.9 1022.9 0.2
27/10:30pm 8.5 5.5 7.6 94 0.4 W 13 17 7 9 1022.9 1022.9 0.2
27/10:00pm 8.1 5.4 7.5 96 0.3 W 11 13 6 7 1023.0 1023.0 0.2
27/09:30pm 7.9 5.4 6.7 92 0.6 WSW 9 13 5 7 1023.0 1023.0 0.2
27/09:00pm 8.4 5.2 7.0 91 0.7 WSW 13 15 7 8 1023.0 1023.0 0.2
27/08:30pm 8.8 5.4 7.6 92 0.6 WSW 15 17 8 9 1022.7 1022.7 0.2
27/08:00pm 9.4 6.4 7.7 89 0.8 WSW 13 17 7 9 1022.3 1022.4 0.2
27/07:30pm 9.6 6.6 7.9 89 0.8 W 13 15 7 8 1022.0 1022.1 0.2
27/07:00pm 10.1 6.7 7.7 85 1.2 WSW 15 19 8 10 1021.6 1021.7 0.2
27/06:30pm 10.9 7.9 7.8 81 1.5 W 13 19 7 10 1021.3 1021.4 0.2
27/06:00pm 11.7 8.1 8.2 79 1.7 WSW 17 19 9 10 1020.9 1021.0 0.2
27/05:30pm 13.6 9.3 7.8 68 2.9 WSW 20 28 11 15 1020.5 1020.6 0.2
27/05:00pm 14.3 9.1 7.4 63 3.4 WSW 24 32 13 17 1020.2 1020.3 0.2
27/04:30pm 14.2 9.1 7.5 64 3.3 WSW 24 33 13 18 1020.0 1020.1 0.2
27/04:00pm 14.2 9.7 8.4 68 2.9 WSW 22 32 12 17 1020.0 1020.1 0.2
27/03:30pm 15.8 10.2 7.3 57 4.2 WSW 26 39 14 21 1019.8 1019.9 0.2
27/03:00pm 15.1 11.3 9.2 68 3.0 SW 19 22 10 12 1019.8 1019.9 0.2
27/02:30pm 15.7 10.9 8.9 64 3.5 WSW 24 35 13 19 1020.0 1020.1 0.2
27/02:00pm 15.5 11.8 9.4 67 3.2 W 19 24 10 13 1020.0 1020.1 0.2
27/01:30pm 15.4 11.5 9.5 68 3.1 W 20 30 11 16 1020.4 1020.5 0.2

Other Formats:

Comma delimited format used in spreadsheet applications
http://www.bom.gov.au/fwo/IDN60801/IDN60801.94702.axf

JavaScript Object Notation format (JSON) in row-major order
http://www.bom.gov.au/fwo/IDN60801/IDN60801.94702.json